createdAt,value
2023-05-15T00:01:32.190Z,27.30
2023-05-15T00:04:00.642Z,27.40
2023-05-15T00:06:28.517Z,27.30
2023-05-15T00:08:56.146Z,27.40
2023-05-15T00:11:23.945Z,27.50
2023-05-15T00:13:51.579Z,27.50
2023-05-15T00:16:19.299Z,27.60
2023-05-15T00:18:47.171Z,27.60
2023-05-15T00:21:18.181Z,27.60
2023-05-15T00:23:48.685Z,27.70
2023-05-15T00:26:16.373Z,27.70
2023-05-15T00:28:44.752Z,27.70
2023-05-15T00:31:14.196Z,27.70
2023-05-15T00:33:42.663Z,27.70
2023-05-15T00:36:10.254Z,27.80
2023-05-15T00:38:37.957Z,27.80
2023-05-15T00:41:07.077Z,27.80
2023-05-15T00:43:35.549Z,27.80
2023-05-15T00:46:03.464Z,27.90
2023-05-15T00:48:32.118Z,27.90
2023-05-15T00:51:00.346Z,27.90
2023-05-15T00:53:28.544Z,28.00
2023-05-15T00:55:57.749Z,28.10
2023-05-15T00:58:29.173Z,28.20
2023-05-15T01:00:57.379Z,28.30
2023-05-15T01:03:24.998Z,28.40
2023-05-15T01:05:52.791Z,28.50
2023-05-15T01:08:43.139Z,28.60
2023-05-15T01:11:13.107Z,28.80
2023-05-15T01:13:41.128Z,28.90
2023-05-15T01:16:09.552Z,28.90
2023-05-15T01:18:37.540Z,29.00
2023-05-15T01:21:11.940Z,29.00
2023-05-15T01:23:54.531Z,29.00
2023-05-15T01:26:41.173Z,29.10
2023-05-15T01:29:26.694Z,29.10
2023-05-15T01:32:12.350Z,29.10
2023-05-15T01:34:46.640Z,29.20
2023-05-15T01:40:30.875Z,29.40
2023-05-15T01:43:06.493Z,29.50
2023-05-15T01:46:09.717Z,29.60
2023-05-15T01:48:38.224Z,29.70
2023-05-15T01:51:10.775Z,29.70
2023-05-15T01:53:40.610Z,29.80
2023-05-15T01:56:12.816Z,29.90
2023-05-15T01:58:42.915Z,29.90
2023-05-15T02:01:13.058Z,30.00
2023-05-15T02:03:45.181Z,30.10
2023-05-15T02:06:14.717Z,30.20
2023-05-15T02:08:46.433Z,30.30
2023-05-15T02:11:15.334Z,30.30
2023-05-15T02:13:47.922Z,30.40
2023-05-15T02:16:16.288Z,30.40
2023-05-15T02:18:54.348Z,30.50
2023-05-15T02:21:26.532Z,30.50
2023-05-15T02:23:56.887Z,30.60
2023-05-15T02:26:31.404Z,30.60
2023-05-15T02:29:07.279Z,30.70
2023-05-15T02:31:37.688Z,30.80
2023-05-15T02:34:18.998Z,30.90
2023-05-15T02:36:48.733Z,31.00
2023-05-15T02:39:17.779Z,31.10
2023-05-15T02:41:46.861Z,31.10
2023-05-15T02:44:17.917Z,31.10
2023-05-15T02:46:46.331Z,31.10
2023-05-15T02:49:15.116Z,31.20
2023-05-15T02:51:43.885Z,31.20
2023-05-15T02:54:11.895Z,31.30
2023-05-15T02:56:43.023Z,31.30
2023-05-15T02:59:11.162Z,31.40
2023-05-15T03:01:39.151Z,31.50
2023-05-15T03:04:07.893Z,31.60
2023-05-15T03:06:35.709Z,31.60
2023-05-15T03:09:03.929Z,31.70
2023-05-15T03:11:31.477Z,31.70
2023-05-15T03:14:03.663Z,31.70
2023-05-15T03:16:32.189Z,31.80
2023-05-15T03:19:00.190Z,31.70
2023-05-15T03:21:27.937Z,31.70
2023-05-15T03:23:56.411Z,31.80
2023-05-15T03:26:24.136Z,31.90
2023-05-15T03:28:51.895Z,32.00
2023-05-15T03:31:20.426Z,32.10
2023-05-15T03:33:50.237Z,32.10
2023-05-15T03:36:47.470Z,32.10
2023-05-15T03:39:17.695Z,32.20
2023-05-15T03:41:48.567Z,32.30
2023-05-15T03:44:16.573Z,32.30
2023-05-15T03:46:47.945Z,32.30
2023-05-15T03:49:16.206Z,32.30
2023-05-15T03:51:43.929Z,32.30
2023-05-15T03:54:32.243Z,32.40
2023-05-15T03:57:00.029Z,32.40
2023-05-15T03:59:41.438Z,32.40
2023-05-15T04:02:10.037Z,32.40
2023-05-15T04:04:38.956Z,32.40
2023-05-15T04:07:08.416Z,32.40
2023-05-15T04:09:37.781Z,32.40
2023-05-15T04:12:05.671Z,32.40
2023-05-15T04:14:34.390Z,32.30
2023-05-15T04:17:10.179Z,32.30
2023-05-15T04:19:37.848Z,32.30
2023-05-15T04:24:45.820Z,32.40
2023-05-15T04:27:13.511Z,32.40
2023-05-15T04:29:41.266Z,32.40
2023-05-15T04:32:09.066Z,32.50
2023-05-15T04:34:43.001Z,32.50
2023-05-15T04:37:12.359Z,32.60
2023-05-15T04:47:20.212Z,32.90
2023-05-15T04:50:00.848Z,33.00
2023-05-15T04:52:31.510Z,33.00
2023-05-15T04:55:49.012Z,33.00
2023-05-15T04:58:20.340Z,33.10
2023-05-15T05:03:34.518Z,33.20
2023-05-15T05:06:04.933Z,33.20
2023-05-15T05:08:50.391Z,33.20
2023-05-15T05:11:20.507Z,33.10
2023-05-15T05:13:50.717Z,33.10
2023-05-15T05:16:30.340Z,33.10
2023-05-15T05:18:58.813Z,33.20
2023-05-15T05:21:29.856Z,33.20
2023-05-15T05:23:57.478Z,33.20
2023-05-15T05:26:27.333Z,33.30
2023-05-15T05:28:54.999Z,33.30
2023-05-15T05:31:22.572Z,33.30
2023-05-15T05:33:52.934Z,33.40
2023-05-15T05:36:20.592Z,33.50
2023-05-15T05:38:49.733Z,33.50
2023-05-15T05:41:17.456Z,33.40
2023-05-15T05:43:45.054Z,33.50
2023-05-15T05:46:15.273Z,33.50
2023-05-15T05:48:44.268Z,33.50
2023-05-15T05:51:11.816Z,33.60
2023-05-15T05:53:39.732Z,33.60
2023-05-15T05:56:07.554Z,33.70
2023-05-15T05:58:35.557Z,33.70
2023-05-15T06:01:06.769Z,33.70
2023-05-15T06:03:35.171Z,33.70
2023-05-15T06:06:03.254Z,33.80
2023-05-15T06:08:30.999Z,33.80
2023-05-15T06:11:01.211Z,33.70
2023-05-15T06:13:31.236Z,33.70
2023-05-15T06:15:58.793Z,33.70
2023-05-15T06:18:26.385Z,33.70
2023-05-15T06:20:56.994Z,33.80
2023-05-15T06:23:26.175Z,33.90
2023-05-15T06:26:03.938Z,34.00
2023-05-15T06:28:39.808Z,34.00
2023-05-15T06:31:07.573Z,34.20
2023-05-15T06:33:35.501Z,34.30
2023-05-15T06:36:15.264Z,34.30
2023-05-15T06:38:51.171Z,34.30
2023-05-15T06:41:18.983Z,34.40
2023-05-15T06:43:47.451Z,34.40
2023-05-15T06:46:17.372Z,34.40
2023-05-15T06:48:45.376Z,34.40
2023-05-15T06:51:13.014Z,34.40
2023-05-15T06:53:46.550Z,34.40
2023-05-15T06:56:14.317Z,34.50
2023-05-15T06:58:44.896Z,34.40
2023-05-15T07:01:12.473Z,34.40
2023-05-15T07:03:41.022Z,34.40
2023-05-15T07:06:09.217Z,34.40
2023-05-15T07:08:37.310Z,34.50
2023-05-15T07:11:10.308Z,34.50
2023-05-15T07:13:37.979Z,34.50
2023-05-15T07:16:06.823Z,34.50
2023-05-15T07:18:36.250Z,34.50
2023-05-15T07:21:04.135Z,34.50
2023-05-15T07:23:31.722Z,34.50
2023-05-15T07:26:28.661Z,34.60
2023-05-15T07:29:00.552Z,34.60
2023-05-15T07:31:28.278Z,34.70
2023-05-15T07:33:55.972Z,34.70
2023-05-15T07:36:23.656Z,34.70
2023-05-15T07:38:51.321Z,34.70
2023-05-15T07:41:18.967Z,34.70
2023-05-15T07:43:46.614Z,34.70
2023-05-15T07:46:14.392Z,34.70
2023-05-15T07:48:42.496Z,34.70
2023-05-15T07:51:10.833Z,34.70
2023-05-15T07:53:39.174Z,34.70
2023-05-15T07:56:07.060Z,34.80
2023-05-15T07:58:39.332Z,34.80
2023-05-15T08:01:07.043Z,34.80
2023-05-15T08:03:36.371Z,34.90
2023-05-15T08:06:21.419Z,34.90
2023-05-15T08:08:49.109Z,34.90
2023-05-15T08:11:16.913Z,34.80
2023-05-15T08:13:44.943Z,34.80
2023-05-15T08:16:12.865Z,34.70
2023-05-15T08:18:43.067Z,34.60
2023-05-15T08:23:58.730Z,34.60
2023-05-15T08:30:14.340Z,34.70
2023-05-15T08:32:58.197Z,34.80
2023-05-15T08:35:56.448Z,34.80
2023-05-15T08:38:26.396Z,34.80
2023-05-15T08:40:55.610Z,34.80
2023-05-15T08:43:28.561Z,34.80
2023-05-15T08:48:34.680Z,34.80
2023-05-15T08:51:09.513Z,34.70
2023-05-15T08:54:13.728Z,34.70
2023-05-15T08:56:58.191Z,34.80
2023-05-15T08:59:29.127Z,34.70
2023-05-15T09:01:59.566Z,34.70
2023-05-15T09:04:28.587Z,34.80
2023-05-15T09:06:56.870Z,34.70
2023-05-15T09:09:45.322Z,34.70
2023-05-15T09:12:15.466Z,34.70
2023-05-15T09:14:44.245Z,34.70
2023-05-15T09:17:12.277Z,34.70
2023-05-15T09:19:43.499Z,34.60
2023-05-15T09:22:18.142Z,34.60
2023-05-15T09:24:48.478Z,34.70
2023-05-15T09:27:16.089Z,34.60
2023-05-15T09:29:44.443Z,34.70
2023-05-15T09:32:14.330Z,34.70
2023-05-15T09:34:43.945Z,34.70
2023-05-15T09:37:13.561Z,34.70
2023-05-15T09:39:47.162Z,34.60
2023-05-15T09:42:16.143Z,34.60
2023-05-15T09:44:45.089Z,34.60
2023-05-15T09:47:17.260Z,34.50
2023-05-15T09:49:46.834Z,34.50
2023-05-15T09:52:19.805Z,34.50
2023-05-15T09:54:50.802Z,34.50
2023-05-15T09:57:22.056Z,34.50
2023-05-15T10:00:48.250Z,34.50
2023-05-15T10:03:21.100Z,34.50
2023-05-15T10:05:48.884Z,34.50
2023-05-15T10:08:27.495Z,34.40
2023-05-15T10:10:56.311Z,34.40
2023-05-15T10:13:24.205Z,34.30
2023-05-15T10:15:52.110Z,34.40
2023-05-15T10:18:21.217Z,34.30
2023-05-15T10:20:50.286Z,34.30
2023-05-15T10:23:18.841Z,34.30
2023-05-15T10:25:59.163Z,34.30
2023-05-15T10:28:28.762Z,34.20
2023-05-15T10:30:57.991Z,34.20
2023-05-15T10:33:26.111Z,34.20
2023-05-15T10:35:53.720Z,34.10
2023-05-15T10:38:21.680Z,34.10
2023-05-15T10:40:50.629Z,34.10
2023-05-15T10:43:21.387Z,34.00
2023-05-15T10:45:49.296Z,33.90
2023-05-15T10:48:17.229Z,33.90
2023-05-15T10:50:44.843Z,33.90
2023-05-15T10:53:13.290Z,33.80
2023-05-15T10:55:41.603Z,33.80
2023-05-15T10:58:10.395Z,33.70
2023-05-15T11:00:46.933Z,33.70
2023-05-15T11:03:48.114Z,33.70
2023-05-15T11:06:16.675Z,33.70
2023-05-15T11:08:45.386Z,33.60
2023-05-15T11:11:31.520Z,33.60
2023-05-15T11:14:06.136Z,33.50
2023-05-15T11:16:54.066Z,33.50
2023-05-15T11:19:40.338Z,33.40
2023-05-15T11:22:18.213Z,33.40
2023-05-15T11:25:16.348Z,33.40
2023-05-15T11:27:45.706Z,33.30
2023-05-15T11:30:25.376Z,33.20
2023-05-15T11:32:58.588Z,33.20
2023-05-15T11:35:38.231Z,33.10
2023-05-15T11:38:11.726Z,33.00
2023-05-15T11:40:45.880Z,33.00
2023-05-15T11:43:20.674Z,33.00
2023-05-15T11:45:49.805Z,33.00
2023-05-15T11:48:18.423Z,32.90
2023-05-15T11:50:46.400Z,32.90
2023-05-15T11:53:14.948Z,32.80
2023-05-15T11:55:44.054Z,32.80
2023-05-15T11:58:14.700Z,32.80
2023-05-15T12:00:42.942Z,32.70
2023-05-15T12:03:17.212Z,32.70
2023-05-15T12:05:57.614Z,32.70
2023-05-15T12:08:27.299Z,32.70
2023-05-15T12:10:54.850Z,32.60
2023-05-15T12:13:22.383Z,32.60
2023-05-15T12:15:49.934Z,32.60
2023-05-15T12:18:17.647Z,32.50
2023-05-15T12:20:48.126Z,32.50
2023-05-15T12:23:17.446Z,32.50
2023-05-15T12:25:46.719Z,32.40
2023-05-15T12:28:14.992Z,32.40
2023-05-15T12:30:42.894Z,32.30
2023-05-15T12:33:11.101Z,32.30
2023-05-15T12:36:01.098Z,32.30
2023-05-15T12:38:29.757Z,32.20
2023-05-15T12:40:57.845Z,32.20
2023-05-15T12:43:26.383Z,32.10
2023-05-15T12:45:54.752Z,32.10
2023-05-15T12:48:22.468Z,32.10
2023-05-15T12:50:50.512Z,32.00
2023-05-15T12:53:19.012Z,32.00
2023-05-15T12:55:47.374Z,32.00
2023-05-15T12:58:16.143Z,32.00
2023-05-15T13:00:46.475Z,32.00
2023-05-15T13:03:14.357Z,32.00
2023-05-15T13:05:45.931Z,32.00
2023-05-15T13:08:17.926Z,32.00
2023-05-15T13:10:46.819Z,31.90
2023-05-15T13:13:15.478Z,31.90
2023-05-15T13:15:46.275Z,31.80
2023-05-15T13:18:15.602Z,31.80
2023-05-15T13:20:50.416Z,31.80
2023-05-15T13:23:19.764Z,31.70
2023-05-15T13:25:47.920Z,31.70
2023-05-15T13:28:16.097Z,31.60
2023-05-15T13:30:43.714Z,31.60
2023-05-15T13:33:12.703Z,31.60
2023-05-15T13:35:42.334Z,31.50
2023-05-15T13:38:11.876Z,31.50
2023-05-15T13:40:40.062Z,31.40
2023-05-15T13:43:07.720Z,31.40
2023-05-15T13:45:36.324Z,31.40
2023-05-15T13:48:04.564Z,31.40
2023-05-15T13:50:32.480Z,31.30
2023-05-15T13:53:00.044Z,31.30
2023-05-15T13:55:27.826Z,31.30
2023-05-15T13:57:55.396Z,31.30
2023-05-15T14:00:23.040Z,31.30
2023-05-15T14:02:51.596Z,31.20
2023-05-15T14:05:19.220Z,31.20
2023-05-15T14:07:47.658Z,31.20
2023-05-15T14:10:15.326Z,31.20
2023-05-15T14:12:44.502Z,31.20
2023-05-15T14:15:12.574Z,31.20
2023-05-15T14:17:41.389Z,31.10
2023-05-15T14:20:13.695Z,31.10
2023-05-15T14:22:41.553Z,31.10
2023-05-15T14:25:09.692Z,31.10
2023-05-15T14:27:37.393Z,31.10
2023-05-15T14:30:06.149Z,31.00
2023-05-15T14:32:34.506Z,31.00
2023-05-15T14:35:02.061Z,31.00
2023-05-15T14:37:29.648Z,31.00
2023-05-15T14:39:57.247Z,30.90
2023-05-15T14:42:25.681Z,30.90
2023-05-15T14:44:53.246Z,30.90
2023-05-15T14:47:20.976Z,30.80
2023-05-15T14:49:48.597Z,30.80
2023-05-15T14:52:17.010Z,30.90
2023-05-15T14:54:47.507Z,30.80
2023-05-15T14:57:21.841Z,30.80
2023-05-15T14:59:49.413Z,30.80
2023-05-15T15:02:17.776Z,30.80
2023-05-15T15:04:45.532Z,30.80
2023-05-15T15:07:13.131Z,30.80
2023-05-15T15:09:40.753Z,30.70
2023-05-15T15:12:09.121Z,30.70
2023-05-15T15:14:39.369Z,30.70
2023-05-15T15:17:07.137Z,30.60
2023-05-15T15:19:35.484Z,30.60
2023-05-15T15:22:03.042Z,30.60
2023-05-15T15:24:31.437Z,30.60
2023-05-15T15:26:58.982Z,30.60
2023-05-15T15:29:26.549Z,30.60
2023-05-15T15:31:54.213Z,30.50
2023-05-15T15:34:23.056Z,30.50
2023-05-15T15:36:51.461Z,30.50
2023-05-15T15:39:19.845Z,30.50
2023-05-15T15:41:47.416Z,30.40
2023-05-15T15:44:14.964Z,30.40
2023-05-15T15:46:42.472Z,30.40
2023-05-15T15:49:10.798Z,30.40
2023-05-15T15:51:39.219Z,30.30
2023-05-15T15:54:06.744Z,30.30
2023-05-15T15:56:34.521Z,30.30
2023-05-15T15:59:02.059Z,30.30
2023-05-15T16:01:29.705Z,30.20
2023-05-15T16:03:57.426Z,30.20
2023-05-15T16:06:24.982Z,30.20
2023-05-15T16:08:52.547Z,30.20
2023-05-15T16:11:20.074Z,30.10
2023-05-15T16:13:48.404Z,30.10
2023-05-15T16:16:16.136Z,30.10
2023-05-15T16:18:43.733Z,30.10
2023-05-15T16:21:12.521Z,30.00
2023-05-15T16:23:43.267Z,30.00
2023-05-15T16:26:11.539Z,30.00
2023-05-15T16:28:39.144Z,30.00
2023-05-15T16:31:06.848Z,30.00
2023-05-15T16:33:34.706Z,30.00
2023-05-15T16:36:03.963Z,30.00
2023-05-15T16:38:32.021Z,30.00
2023-05-15T16:40:59.672Z,29.90
2023-05-15T16:43:27.225Z,29.90
2023-05-15T16:45:54.815Z,29.90
2023-05-15T16:48:23.126Z,29.90
2023-05-15T16:50:51.345Z,29.90
2023-05-15T16:53:19.345Z,29.90
2023-05-15T16:55:49.981Z,29.90
2023-05-15T16:58:17.523Z,29.90
2023-05-15T17:00:45.123Z,29.80
2023-05-15T17:03:14.073Z,29.80
2023-05-15T17:05:42.408Z,29.80
2023-05-15T17:08:10.051Z,29.80
2023-05-15T17:10:37.608Z,29.80
2023-05-15T17:13:05.166Z,29.70
2023-05-15T17:15:32.710Z,29.70
2023-05-15T17:18:00.278Z,29.70
2023-05-15T17:20:28.744Z,29.70
2023-05-15T17:22:57.065Z,29.70
2023-05-15T17:25:24.745Z,29.70
2023-05-15T17:27:52.439Z,29.60
2023-05-15T17:30:20.146Z,29.60
2023-05-15T17:32:47.710Z,29.60
2023-05-15T17:35:16.875Z,29.60
2023-05-15T17:37:45.186Z,29.60
2023-05-15T17:40:13.188Z,29.60
2023-05-15T17:42:40.777Z,29.50
2023-05-15T17:45:08.674Z,29.50
2023-05-15T17:47:37.054Z,29.50
2023-05-15T17:50:04.743Z,29.50
2023-05-15T17:52:32.559Z,29.50
2023-05-15T17:55:00.138Z,29.50
2023-05-15T17:57:27.655Z,29.50
2023-05-15T17:59:55.251Z,29.50
2023-05-15T18:02:22.760Z,29.50
2023-05-15T18:04:50.595Z,29.50
2023-05-15T18:07:18.124Z,29.50
2023-05-15T18:09:45.721Z,29.50
2023-05-15T18:12:13.237Z,29.50
2023-05-15T18:14:40.888Z,29.50
2023-05-15T18:17:09.034Z,29.40
2023-05-15T18:19:36.570Z,29.40
2023-05-15T18:22:04.266Z,29.40
2023-05-15T18:24:32.651Z,29.30
2023-05-15T18:27:00.241Z,29.30
2023-05-15T18:29:27.805Z,29.30
2023-05-15T18:31:55.550Z,29.20
2023-05-15T18:34:23.224Z,29.20
2023-05-15T18:36:52.323Z,29.10
2023-05-15T18:39:19.946Z,29.00
2023-05-15T18:41:48.340Z,29.00
2023-05-15T18:44:16.761Z,29.00
2023-05-15T18:46:44.342Z,28.90
2023-05-15T18:49:12.201Z,28.90
2023-05-15T18:51:39.769Z,28.90
2023-05-15T18:54:08.380Z,28.90
2023-05-15T18:56:36.274Z,28.90
2023-05-15T18:59:03.769Z,28.80
2023-05-15T19:01:31.347Z,28.80
2023-05-15T19:03:59.091Z,28.80
2023-05-15T19:06:26.605Z,28.80
2023-05-15T19:08:54.120Z,28.80
2023-05-15T19:11:21.825Z,28.80
2023-05-15T19:13:49.408Z,28.80
2023-05-15T19:16:17.710Z,28.80
2023-05-15T19:18:45.650Z,28.80
2023-05-15T19:21:13.308Z,28.80
2023-05-15T19:23:41.096Z,28.80
2023-05-15T19:26:11.064Z,28.80
2023-05-15T19:28:39.495Z,28.80
2023-05-15T19:31:11.746Z,28.80
2023-05-15T19:33:45.961Z,28.80
2023-05-15T19:36:13.951Z,28.70
2023-05-15T19:38:41.581Z,28.70
2023-05-15T19:41:09.242Z,28.70
2023-05-15T19:43:38.932Z,28.70
2023-05-15T19:46:07.051Z,28.70
2023-05-15T19:48:34.658Z,28.70
2023-05-15T19:51:02.233Z,28.80
2023-05-15T19:53:29.793Z,28.70
2023-05-15T19:55:57.374Z,28.80
2023-05-15T19:58:24.933Z,28.70
2023-05-15T20:00:53.811Z,28.70
2023-05-15T20:03:21.936Z,28.70
2023-05-15T20:05:49.600Z,28.70
2023-05-15T20:08:18.186Z,28.70
2023-05-15T20:10:51.554Z,28.70
2023-05-15T20:13:19.964Z,28.70
2023-05-15T20:15:47.975Z,28.70
2023-05-15T20:18:15.646Z,28.60
2023-05-15T20:20:43.237Z,28.70
2023-05-15T20:23:10.975Z,28.60
2023-05-15T20:25:38.712Z,28.60
2023-05-15T20:28:07.120Z,28.70
2023-05-15T20:30:35.481Z,28.70
2023-05-15T20:33:03.094Z,28.60
2023-05-15T20:35:31.337Z,28.60
2023-05-15T20:37:59.143Z,28.60
2023-05-15T20:40:26.871Z,28.60
2023-05-15T20:42:54.473Z,28.60
2023-05-15T20:45:22.138Z,28.50
2023-05-15T20:47:50.296Z,28.60
2023-05-15T20:50:18.281Z,28.60
2023-05-15T20:52:46.451Z,28.50
2023-05-15T20:55:20.690Z,28.50
2023-05-15T20:57:49.122Z,28.50
2023-05-15T21:00:18.493Z,28.50
2023-05-15T21:02:47.667Z,28.50
2023-05-15T21:05:16.182Z,28.50
2023-05-15T21:07:43.811Z,28.50
2023-05-15T21:10:11.769Z,28.40
2023-05-15T21:12:40.092Z,28.40
2023-05-15T21:15:08.047Z,28.40
2023-05-15T21:17:36.460Z,28.40
2023-05-15T21:20:05.419Z,28.40
2023-05-15T21:22:33.479Z,28.40
2023-05-15T21:25:02.155Z,28.40
2023-05-15T21:27:29.635Z,28.30
2023-05-15T21:29:57.500Z,28.30
2023-05-15T21:32:25.118Z,28.30
2023-05-15T21:34:53.452Z,28.30
2023-05-15T21:37:21.190Z,28.30
2023-05-15T21:39:48.952Z,28.30
2023-05-15T21:42:16.540Z,28.30
2023-05-15T21:44:44.125Z,28.30
2023-05-15T21:47:11.672Z,28.30
2023-05-15T21:49:39.965Z,28.30
2023-05-15T21:52:07.522Z,28.30
2023-05-15T21:54:35.999Z,28.30
2023-05-15T21:57:04.373Z,28.20
2023-05-15T21:59:32.679Z,28.20
2023-05-15T22:02:01.004Z,28.10
2023-05-15T22:04:30.397Z,28.00
2023-05-15T22:06:58.046Z,28.00
2023-05-15T22:09:25.598Z,28.00
2023-05-15T22:11:53.160Z,27.90
2023-05-15T22:14:54.521Z,27.90
2023-05-15T22:17:28.214Z,27.90
2023-05-15T22:20:02.812Z,27.90
2023-05-15T22:22:30.404Z,27.80
2023-05-15T22:24:57.928Z,27.80
2023-05-15T22:27:26.133Z,27.80
2023-05-15T22:29:55.794Z,27.80
2023-05-15T22:32:24.327Z,27.70
2023-05-15T22:34:51.891Z,27.70
2023-05-15T22:37:19.561Z,27.70
2023-05-15T22:39:47.188Z,27.70
2023-05-15T22:42:15.075Z,27.70
2023-05-15T22:44:42.716Z,27.70
2023-05-15T22:47:10.530Z,27.70
2023-05-15T22:49:38.215Z,27.70
2023-05-15T22:52:06.940Z,27.70
2023-05-15T22:54:35.612Z,27.80
2023-05-15T22:57:03.158Z,27.80
2023-05-15T22:59:30.980Z,27.80
2023-05-15T23:01:58.580Z,27.80
2023-05-15T23:04:28.154Z,27.80
2023-05-15T23:06:56.016Z,27.80
2023-05-15T23:09:24.422Z,27.80
2023-05-15T23:11:51.989Z,27.70
2023-05-15T23:14:19.509Z,27.70
2023-05-15T23:16:47.236Z,27.70
2023-05-15T23:19:14.922Z,27.70
2023-05-15T23:21:42.536Z,27.70
2023-05-15T23:24:10.324Z,27.80
2023-05-15T23:26:38.326Z,27.80
2023-05-15T23:29:05.958Z,27.80
2023-05-15T23:31:34.853Z,27.80
2023-05-15T23:34:02.432Z,27.90
2023-05-15T23:36:29.950Z,27.90
2023-05-15T23:38:57.521Z,27.90
2023-05-15T23:41:26.558Z,28.00
2023-05-15T23:43:55.044Z,28.00
2023-05-15T23:46:22.672Z,28.00
2023-05-15T23:48:50.236Z,28.10
2023-05-15T23:51:17.792Z,28.10
2023-05-15T23:53:45.340Z,28.20
2023-05-15T23:56:13.728Z,28.20
2023-05-15T23:58:41.905Z,28.30
